createdAt,value
2019-05-15T00:01:08.717Z,102249.66
2019-05-15T00:03:39.057Z,102253.05
2019-05-15T00:06:08.796Z,102239.67
2019-05-15T00:08:38.800Z,102242.62
2019-05-15T00:11:08.408Z,102235.92
2019-05-15T00:13:38.929Z,102233.98
2019-05-15T00:16:08.724Z,102230.64
2019-05-15T00:18:39.046Z,102229.98
2019-05-15T00:21:09.253Z,102235.56
2019-05-15T00:23:38.922Z,102232.30
2019-05-15T00:26:09.266Z,102228.59
2019-05-15T00:28:39.058Z,102227.44
2019-05-15T00:31:09.069Z,102224.94
2019-05-15T00:33:39.372Z,102225.23
2019-05-15T00:36:08.857Z,102226.92
2019-05-15T00:38:38.980Z,102232.06
2019-05-15T00:41:09.403Z,102224.88
2019-05-15T00:43:38.978Z,102223.86
2019-05-15T00:46:09.263Z,102223.36
2019-05-15T00:48:39.849Z,102219.77
2019-05-15T00:51:09.374Z,102222.77
2019-05-15T00:53:39.143Z,102219.93
2019-05-15T00:56:08.905Z,102222.93
2019-05-15T00:58:40.273Z,102218.77
2019-05-15T01:01:08.913Z,102221.28
2019-05-15T01:03:38.697Z,102218.18
2019-05-15T01:06:08.437Z,102216.30
2019-05-15T01:08:39.363Z,102209.58
2019-05-15T01:11:09.275Z,102215.20
2019-05-15T01:13:39.003Z,102211.48
2019-05-15T01:16:09.231Z,102209.20
2019-05-15T01:18:38.806Z,102212.59
2019-05-15T01:21:08.444Z,102215.12
2019-05-15T01:23:39.140Z,102217.69
2019-05-15T01:26:08.572Z,102211.92
2019-05-15T01:28:38.367Z,102203.95
2019-05-15T01:31:08.515Z,102207.77
2019-05-15T01:33:39.182Z,102212.08
2019-05-15T01:36:08.647Z,102212.44
2019-05-15T01:38:38.910Z,102209.30
2019-05-15T01:41:09.678Z,102203.01
2019-05-15T01:43:39.028Z,102203.86
2019-05-15T01:46:08.576Z,102197.95
2019-05-15T01:48:38.878Z,102204.08
2019-05-15T01:51:09.261Z,102199.70
2019-05-15T01:53:38.696Z,102196.58
2019-05-15T01:56:08.398Z,102197.00
2019-05-15T01:58:38.215Z,102195.19
2019-05-15T02:01:08.154Z,102197.78
2019-05-15T02:03:38.502Z,102192.02
2019-05-15T02:06:08.397Z,102201.66
2019-05-15T02:08:39.387Z,102197.64
2019-05-15T02:11:09.153Z,102186.55
2019-05-15T02:13:39.076Z,102190.78
2019-05-15T02:16:08.552Z,102187.11
2019-05-15T02:18:39.173Z,102183.52
2019-05-15T02:21:10.366Z,102187.41
2019-05-15T02:23:39.188Z,102185.05
2019-05-15T02:26:08.239Z,102178.40
2019-05-15T02:28:38.427Z,102180.97
2019-05-15T02:31:10.467Z,102179.05
2019-05-15T02:33:40.092Z,102174.52
2019-05-15T02:36:09.952Z,102177.02
2019-05-15T02:38:40.821Z,102172.11
2019-05-15T02:41:10.389Z,102179.86
2019-05-15T02:43:39.600Z,102172.74
2019-05-15T02:46:10.121Z,102175.80
2019-05-15T02:48:41.120Z,102177.12
2019-05-15T02:51:10.382Z,102179.68
2019-05-15T02:53:39.954Z,102180.42
2019-05-15T02:56:09.509Z,102177.72
2019-05-15T02:58:39.886Z,102173.63
2019-05-15T03:01:09.514Z,102180.64
2019-05-15T03:03:39.352Z,102178.78
2019-05-15T03:06:09.918Z,102181.73
2019-05-15T03:08:40.108Z,102177.25
2019-05-15T03:11:09.948Z,102174.12
2019-05-15T03:13:39.568Z,102177.53
2019-05-15T03:16:10.052Z,102171.30
2019-05-15T03:18:39.943Z,102176.81
2019-05-15T03:21:09.559Z,102174.14
2019-05-15T03:23:40.370Z,102176.13
2019-05-15T03:26:09.917Z,102172.95
2019-05-15T03:28:39.695Z,102169.75
2019-05-15T03:31:35.726Z,102171.42
2019-05-15T03:33:45.946Z,102157.77
2019-05-15T03:36:13.155Z,102167.47
2019-05-15T03:38:41.310Z,102168.29
2019-05-15T03:41:10.769Z,102177.84
2019-05-15T03:43:39.934Z,102173.44
2019-05-15T03:46:09.360Z,102169.34
2019-05-15T03:48:40.236Z,102176.80
2019-05-15T03:51:09.534Z,102172.79
2019-05-15T03:53:40.105Z,102172.33
2019-05-15T03:56:10.007Z,102179.22
2019-05-15T03:58:40.060Z,102175.70
2019-05-15T04:01:27.796Z,102176.20
2019-05-15T04:03:40.410Z,102179.29
2019-05-15T04:06:10.278Z,102181.45
2019-05-15T04:08:39.616Z,102183.58
2019-05-15T04:11:09.294Z,102183.58
2019-05-15T04:13:39.548Z,102181.77
2019-05-15T04:16:10.306Z,102182.20
2019-05-15T04:18:39.878Z,102181.30
2019-05-15T04:21:09.517Z,102189.66
2019-05-15T04:23:39.576Z,102184.02
2019-05-15T04:26:10.219Z,102181.77
2019-05-15T04:28:41.971Z,102192.37
2019-05-15T04:31:11.374Z,102191.05
2019-05-15T04:33:40.598Z,102193.29
2019-05-15T04:36:10.137Z,102195.92
2019-05-15T04:38:39.711Z,102191.98
2019-05-15T04:41:09.910Z,102194.33
2019-05-15T04:43:44.335Z,102194.41
2019-05-15T04:46:10.306Z,102196.19
2019-05-15T04:48:40.114Z,102194.12
2019-05-15T04:51:09.816Z,102191.15
2019-05-15T04:53:39.796Z,102196.95
2019-05-15T04:56:09.602Z,102186.58
2019-05-15T04:58:39.692Z,102194.39
2019-05-15T05:01:09.601Z,102192.77
2019-05-15T05:03:39.518Z,102195.43
2019-05-15T05:06:09.816Z,102195.58
2019-05-15T05:08:40.048Z,102188.66
2019-05-15T05:11:09.818Z,102195.38
2019-05-15T05:13:39.634Z,102191.15
2019-05-15T05:16:09.752Z,102184.37
2019-05-15T05:18:41.148Z,102190.73
2019-05-15T05:21:09.702Z,102190.13
2019-05-15T05:23:39.332Z,102193.02
2019-05-15T05:26:11.128Z,102198.15
2019-05-15T05:28:39.124Z,102190.96
2019-05-15T05:31:08.602Z,102193.02
2019-05-15T05:33:38.299Z,102192.38
2019-05-15T05:36:07.871Z,102195.76
2019-05-15T05:38:38.648Z,102197.78
2019-05-15T05:41:08.484Z,102199.91
2019-05-15T05:43:38.400Z,102190.47
2019-05-15T05:46:09.194Z,102192.02
2019-05-15T05:48:38.607Z,102186.53
2019-05-15T05:51:09.378Z,102183.28
2019-05-15T05:53:38.611Z,102185.26
2019-05-15T05:56:08.866Z,102187.23
2019-05-15T05:58:38.998Z,102189.28
2019-05-15T06:01:09.310Z,102192.12
2019-05-15T06:03:38.949Z,102191.00
2019-05-15T06:06:09.831Z,102186.74
2019-05-15T06:08:39.168Z,102186.45
2019-05-15T06:11:09.834Z,102183.94
2019-05-15T06:13:39.073Z,102183.94
2019-05-15T06:16:08.577Z,102182.26
2019-05-15T06:18:38.861Z,102182.81
2019-05-15T06:21:09.137Z,102188.25
2019-05-15T06:23:45.352Z,102183.53
2019-05-15T06:26:09.683Z,102180.59
2019-05-15T06:28:39.523Z,102184.78
2019-05-15T06:31:09.024Z,102174.32
2019-05-15T06:33:38.560Z,102182.48
2019-05-15T06:36:09.012Z,102187.52
2019-05-15T06:38:39.255Z,102187.34
2019-05-15T06:41:08.944Z,102180.19
2019-05-15T06:43:38.886Z,102179.18
2019-05-15T06:46:09.162Z,102184.73
2019-05-15T06:48:38.560Z,102185.06
2019-05-15T06:51:08.891Z,102180.58
2019-05-15T06:53:38.581Z,102176.05
2019-05-15T06:56:08.113Z,102184.72
2019-05-15T06:58:38.485Z,102186.36
2019-05-15T07:01:08.700Z,102178.84
2019-05-15T07:03:39.229Z,102174.70
2019-05-15T07:06:09.371Z,102175.48
2019-05-15T07:08:38.785Z,102173.18
2019-05-15T07:11:08.856Z,102173.53
2019-05-15T07:13:38.459Z,102160.20
2019-05-15T07:16:08.238Z,102158.34
2019-05-15T07:18:39.171Z,102157.78
2019-05-15T07:21:10.162Z,102161.63
2019-05-15T07:23:39.211Z,102154.86
2019-05-15T07:26:09.593Z,102152.13
2019-05-15T07:28:38.715Z,102154.20
2019-05-15T07:31:11.453Z,102148.82
2019-05-15T07:33:43.358Z,102148.26
2019-05-15T07:36:09.333Z,102151.77
2019-05-15T07:38:39.203Z,102158.28
2019-05-15T07:41:10.200Z,102142.73
2019-05-15T07:43:39.267Z,102151.40
2019-05-15T07:46:08.648Z,102138.42
2019-05-15T07:48:38.537Z,102136.94
2019-05-15T07:51:11.686Z,102132.86
2019-05-15T07:53:38.702Z,102128.70
2019-05-15T07:56:11.666Z,102125.06
2019-05-15T07:58:38.815Z,102129.82
2019-05-15T08:01:09.939Z,102124.36
2019-05-15T08:03:55.059Z,102122.83
2019-05-15T08:06:09.441Z,102126.23
2019-05-15T08:08:39.365Z,102122.11
2019-05-15T08:11:20.437Z,102110.34
2019-05-15T08:13:39.505Z,102112.78
2019-05-15T08:16:08.773Z,102114.76
2019-05-15T08:18:39.314Z,102110.06
2019-05-15T08:21:09.132Z,102114.25
2019-05-15T08:23:39.089Z,102104.71
2019-05-15T08:26:08.952Z,102103.55
2019-05-15T08:28:38.451Z,102102.41
2019-05-15T08:31:10.255Z,102100.89
2019-05-15T08:33:38.906Z,102096.66
2019-05-15T08:36:08.580Z,102099.17
2019-05-15T08:38:38.362Z,102099.00
2019-05-15T08:41:11.247Z,102098.91
2019-05-15T08:43:38.508Z,102082.72
2019-05-15T08:46:08.197Z,102093.22
2019-05-15T08:48:38.380Z,102091.63
2019-05-15T08:51:08.789Z,102093.53
2019-05-15T08:53:38.243Z,102092.26
2019-05-15T08:56:08.587Z,102086.09
2019-05-15T08:58:38.309Z,102078.16
2019-05-15T09:01:09.755Z,102079.61
2019-05-15T09:03:38.348Z,102072.56
2019-05-15T09:06:09.115Z,102064.67
2019-05-15T09:08:39.086Z,102066.50
2019-05-15T09:11:09.345Z,102064.78
2019-05-15T09:13:43.280Z,102057.28
2019-05-15T09:16:09.495Z,102054.18
2019-05-15T09:18:39.311Z,102054.23
2019-05-15T09:21:08.973Z,102049.36
2019-05-15T09:23:38.889Z,102039.61
2019-05-15T09:26:09.191Z,102045.02
2019-05-15T09:28:39.288Z,102032.22
2019-05-15T09:31:08.726Z,102027.42
2019-05-15T09:33:38.639Z,102022.63
2019-05-15T09:36:09.018Z,102019.59
2019-05-15T09:38:38.995Z,101998.34
2019-05-15T09:41:09.180Z,101985.89
2019-05-15T09:43:40.549Z,101997.07
2019-05-15T09:46:10.403Z,101998.42
2019-05-15T09:48:39.728Z,101989.55
2019-05-15T09:51:09.372Z,101984.21
2019-05-15T09:53:39.363Z,101980.68
2019-05-15T09:56:08.826Z,101977.61
2019-05-15T09:58:38.301Z,101973.16
2019-05-15T10:01:08.394Z,101981.67
2019-05-15T10:03:39.467Z,101971.88
2019-05-15T10:06:09.272Z,101969.25
2019-05-15T10:08:39.741Z,101972.83
2019-05-15T10:11:09.345Z,101967.93
2019-05-15T10:13:38.689Z,101970.16
2019-05-15T10:16:08.562Z,101966.60
2019-05-15T10:18:39.114Z,101966.17
2019-05-15T10:21:09.113Z,101954.16
2019-05-15T10:23:40.440Z,101959.95
2019-05-15T10:26:14.021Z,101953.27
2019-05-15T10:28:40.078Z,101963.54
2019-05-15T10:31:09.560Z,101956.85
2019-05-15T10:33:39.466Z,101944.81
2019-05-15T10:36:08.691Z,101949.25
2019-05-15T10:38:39.251Z,101942.57
2019-05-15T10:41:14.108Z,101934.09
2019-05-15T10:43:46.180Z,101935.44
2019-05-15T10:46:13.235Z,101939.45
2019-05-15T10:48:40.949Z,101928.30
2019-05-15T10:51:10.476Z,101919.82
2019-05-15T10:53:39.757Z,101927.84
2019-05-15T10:56:09.110Z,101928.27
2019-05-15T10:58:39.271Z,101925.59
2019-05-15T11:01:11.310Z,101923.34
2019-05-15T11:03:40.137Z,101922.45
2019-05-15T11:06:09.368Z,101910.83
2019-05-15T11:08:40.473Z,101907.65
2019-05-15T11:11:09.441Z,101901.41
2019-05-15T11:13:38.560Z,101898.69
2019-05-15T11:16:07.613Z,101906.24
2019-05-15T11:18:39.231Z,101891.95
2019-05-15T11:21:08.269Z,101881.20
2019-05-15T11:23:39.533Z,101878.97
2019-05-15T11:26:08.869Z,101881.63
2019-05-15T11:28:38.990Z,101879.91
2019-05-15T11:31:10.299Z,101881.72
2019-05-15T11:33:39.347Z,101877.70
2019-05-15T11:36:08.383Z,101880.80
2019-05-15T11:38:38.227Z,101871.42
2019-05-15T11:41:08.682Z,101865.61
2019-05-15T11:43:38.741Z,101859.34
2019-05-15T11:46:10.018Z,101863.77
2019-05-15T11:48:39.296Z,101859.30
2019-05-15T11:51:09.581Z,101849.98
2019-05-15T11:53:39.810Z,101846.44
2019-05-15T11:56:09.644Z,101842.89
2019-05-15T11:58:39.153Z,101846.45
2019-05-15T12:01:08.759Z,101851.81
2019-05-15T12:03:38.731Z,101846.87
2019-05-15T12:06:18.599Z,101847.79
2019-05-15T12:08:38.747Z,101841.99
2019-05-15T12:11:11.876Z,101843.33
2019-05-15T12:13:38.585Z,101835.29
2019-05-15T12:16:07.675Z,101847.31
2019-05-15T12:18:38.880Z,101845.05
2019-05-15T12:21:07.520Z,101837.41
2019-05-15T12:23:38.745Z,101834.75
2019-05-15T12:26:09.147Z,101841.42
2019-05-15T12:28:40.694Z,101833.84
2019-05-15T12:31:09.161Z,101828.02
2019-05-15T12:33:38.612Z,101832.45
2019-05-15T12:36:10.578Z,101823.53
2019-05-15T12:38:39.704Z,101818.19
2019-05-15T13:01:18.263Z,101798.71
2019-05-15T13:03:46.093Z,101801.83
2019-05-15T13:06:15.087Z,101797.81
2019-05-15T13:08:44.094Z,101792.87
2019-05-15T13:11:15.256Z,101784.42
2019-05-15T13:13:43.950Z,101787.99
2019-05-15T13:16:13.024Z,101775.91
2019-05-15T13:18:42.095Z,101775.45
2019-05-15T13:21:11.104Z,101774.53
2019-05-15T13:23:40.156Z,101778.52
2019-05-15T13:26:22.973Z,101770.05
2019-05-15T13:28:40.010Z,101773.67
2019-05-15T13:31:09.313Z,101765.65
2019-05-15T13:33:38.800Z,101767.86
2019-05-15T13:36:08.897Z,101761.18
2019-05-15T13:38:38.304Z,101765.21
2019-05-15T13:41:09.436Z,101766.13
2019-05-15T13:43:38.598Z,101758.95
2019-05-15T13:46:08.745Z,101757.12
2019-05-15T13:48:38.605Z,101750.45
2019-05-15T13:51:07.810Z,101752.28
2019-05-15T13:53:38.505Z,101755.92
2019-05-15T13:56:07.916Z,101753.73
2019-05-15T13:58:38.766Z,101749.27
2019-05-15T14:01:09.425Z,101750.62
2019-05-15T14:03:39.108Z,101757.38
2019-05-15T14:06:09.385Z,101754.23
2019-05-15T14:08:39.062Z,101743.07
2019-05-15T14:11:08.731Z,101742.21
2019-05-15T14:13:39.182Z,101747.15
2019-05-15T14:16:09.691Z,101744.95
2019-05-15T14:18:39.150Z,101744.97
2019-05-15T14:21:08.930Z,101738.76
2019-05-15T14:23:38.509Z,101744.61
2019-05-15T14:26:17.730Z,101746.41
2019-05-15T14:28:38.940Z,101740.61
2019-05-15T14:31:09.774Z,101739.28
2019-05-15T14:33:39.030Z,101734.41
2019-05-15T14:36:08.569Z,101729.97
2019-05-15T14:38:37.989Z,101730.84
2019-05-15T14:41:08.805Z,101736.21
2019-05-15T14:43:38.407Z,101724.63
2019-05-15T14:46:08.102Z,101724.64
2019-05-15T14:48:38.668Z,101714.86
2019-05-15T14:51:08.715Z,101730.47
2019-05-15T14:53:38.541Z,101725.58
2019-05-15T14:56:08.624Z,101722.91
2019-05-15T14:58:38.672Z,101718.44
2019-05-15T15:01:12.409Z,101715.34
2019-05-15T15:03:38.776Z,101715.30
2019-05-15T15:06:08.684Z,101709.95
2019-05-15T15:08:37.898Z,101713.09
2019-05-15T15:11:08.791Z,101715.36
2019-05-15T15:13:38.202Z,101711.77
2019-05-15T15:16:08.363Z,101712.70
2019-05-15T15:18:38.610Z,101711.83
2019-05-15T15:21:08.625Z,101716.73
2019-05-15T15:23:38.765Z,101714.08
2019-05-15T15:26:08.344Z,101707.84
2019-05-15T15:28:39.999Z,101711.44
2019-05-15T15:31:08.269Z,101708.31
2019-05-15T15:33:39.166Z,101707.44
2019-05-15T15:36:08.845Z,101699.41
2019-05-15T15:38:43.801Z,101703.83
2019-05-15T15:41:08.768Z,101702.95
2019-05-15T15:43:38.768Z,101705.63
2019-05-15T15:46:08.674Z,101694.92
2019-05-15T15:48:39.106Z,101700.74
2019-05-15T15:51:09.182Z,101697.14
2019-05-15T15:53:39.081Z,101696.73
2019-05-15T15:56:10.612Z,101696.75
2019-05-15T15:58:39.187Z,101701.24
2019-05-15T16:01:09.032Z,101703.05
2019-05-15T16:03:38.277Z,101702.17
2019-05-15T16:06:07.359Z,101698.59
2019-05-15T16:08:51.247Z,101692.36
2019-05-15T16:11:08.296Z,101689.23
2019-05-15T16:13:38.608Z,101699.52
2019-05-15T16:16:08.609Z,101691.95
2019-05-15T16:18:38.364Z,101687.08
2019-05-15T16:21:08.197Z,101689.31
2019-05-15T16:23:38.545Z,101684.87
2019-05-15T16:26:09.229Z,101687.98
2019-05-15T16:28:38.899Z,101687.56
2019-05-15T16:31:08.106Z,101687.11
2019-05-15T16:33:38.995Z,101690.70
2019-05-15T16:36:08.763Z,101681.81
2019-05-15T16:38:38.949Z,101684.95
2019-05-15T16:41:09.059Z,101690.78
2019-05-15T16:43:38.235Z,101681.89
2019-05-15T16:46:09.202Z,101683.70
2019-05-15T16:48:38.981Z,101681.91
2019-05-15T16:51:09.163Z,101677.48
2019-05-15T16:53:38.719Z,101681.47
2019-05-15T16:56:07.780Z,101690.41
2019-05-15T16:58:38.530Z,101688.20
2019-05-15T17:01:07.740Z,101685.53
2019-05-15T17:03:38.031Z,101681.53
2019-05-15T17:06:09.448Z,101678.89
2019-05-15T17:08:38.042Z,101680.69
2019-05-15T17:11:08.073Z,101680.23
2019-05-15T17:13:39.421Z,101678.02
2019-05-15T17:16:08.960Z,101680.73
2019-05-15T17:18:38.517Z,101674.93
2019-05-15T17:21:10.056Z,101678.51
2019-05-15T17:23:38.513Z,101676.30
2019-05-15T17:26:08.853Z,101681.17
2019-05-15T17:28:38.305Z,101684.76
2019-05-15T17:31:09.247Z,101682.95
2019-05-15T17:33:38.543Z,101684.32
2019-05-15T17:36:07.605Z,101683.86
2019-05-15T17:38:38.172Z,101686.97
2019-05-15T17:41:08.282Z,101684.33
2019-05-15T17:43:37.968Z,101688.75
2019-05-15T17:46:08.905Z,101684.77
2019-05-15T17:48:38.844Z,101688.31
2019-05-15T17:51:09.131Z,101686.54
2019-05-15T17:53:38.562Z,101685.64
2019-05-15T17:56:07.626Z,101684.30
2019-05-15T17:58:38.145Z,101680.29
2019-05-15T18:01:08.786Z,101681.65
2019-05-15T18:03:39.269Z,101679.39
2019-05-15T18:06:08.512Z,101677.13
2019-05-15T18:08:39.087Z,101674.91
2019-05-15T18:11:08.197Z,101678.91
2019-05-15T18:13:38.223Z,101677.14
2019-05-15T18:16:12.364Z,101678.91
2019-05-15T18:18:38.482Z,101674.02
2019-05-15T18:21:08.809Z,101679.77
2019-05-15T18:23:38.876Z,101670.89
2019-05-15T18:26:09.020Z,101669.08
2019-05-15T18:28:38.823Z,101672.17
2019-05-15T18:31:09.029Z,101669.06
2019-05-15T18:33:39.778Z,101662.84
2019-05-15T18:36:09.039Z,101667.27
2019-05-15T18:38:38.844Z,101669.05
2019-05-15T18:41:09.063Z,101670.36
2019-05-15T18:43:38.427Z,101665.00
2019-05-15T18:46:09.002Z,101670.78
2019-05-15T18:48:38.322Z,101669.88
2019-05-15T18:51:08.115Z,101673.86
2019-05-15T18:53:38.814Z,101668.51
2019-05-15T18:56:08.956Z,101667.59
2019-05-15T18:58:38.293Z,101671.14
2019-05-15T19:01:09.245Z,101671.99
2019-05-15T19:03:38.603Z,101673.31
2019-05-15T19:06:08.895Z,101672.86
2019-05-15T19:08:38.764Z,101677.74
2019-05-15T19:11:07.982Z,101676.39
2019-05-15T19:13:38.897Z,101671.92
2019-05-15T19:16:07.868Z,101677.25
2019-05-15T19:18:38.485Z,101684.31
2019-05-15T19:21:08.123Z,101685.16
2019-05-15T19:23:38.172Z,101687.35
2019-05-15T19:26:09.259Z,101685.98
2019-05-15T19:28:39.197Z,101695.29
2019-05-15T19:31:08.975Z,101694.83
2019-05-15T19:33:41.181Z,101697.47
2019-05-15T19:36:08.979Z,101697.42
2019-05-15T19:38:38.050Z,101691.16
2019-05-15T19:41:09.534Z,101697.34
2019-05-15T19:43:38.110Z,101691.52
2019-05-15T19:46:08.002Z,101685.28
2019-05-15T19:48:38.597Z,101694.15
2019-05-15T19:51:08.983Z,101688.34
2019-05-15T19:53:38.348Z,101690.09
2019-05-15T19:56:08.455Z,101684.73
2019-05-15T19:58:37.640Z,101693.63
2019-05-15T20:01:08.075Z,101691.37
2019-05-15T20:03:49.647Z,101694.02
2019-05-15T20:06:08.471Z,101692.22
2019-05-15T20:08:38.518Z,101693.97
2019-05-15T20:11:10.302Z,101689.53
2019-05-15T20:13:38.557Z,101691.72
2019-05-15T20:16:07.603Z,101678.84
2019-05-15T20:18:38.585Z,101679.27
2019-05-15T20:21:08.884Z,101680.12
2019-05-15T20:23:38.271Z,101671.25
2019-05-15T20:26:08.418Z,101674.78
2019-05-15T20:28:39.217Z,101677.85
2019-05-15T20:31:08.419Z,101674.73
2019-05-15T20:33:37.881Z,101673.36
2019-05-15T20:36:09.109Z,101670.25
2019-05-15T20:38:39.397Z,101671.09
2019-05-15T20:41:08.785Z,101666.19
2019-05-15T20:43:38.471Z,101666.59
2019-05-15T20:46:08.495Z,101667.89
2019-05-15T20:48:38.220Z,101670.98
2019-05-15T20:51:07.531Z,101663.87
2019-05-15T20:53:38.071Z,101664.74
2019-05-15T20:56:08.371Z,101662.03
2019-05-15T20:58:38.316Z,101655.36
2019-05-15T21:01:09.161Z,101650.91
2019-05-15T21:03:38.428Z,101654.02
2019-05-15T21:06:09.172Z,101649.98
2019-05-15T21:08:38.271Z,101646.87
2019-05-15T21:11:11.584Z,101646.84
2019-05-15T21:13:38.450Z,101647.71
2019-05-15T21:16:08.408Z,101645.03
2019-05-15T21:18:38.063Z,101651.68
2019-05-15T21:21:10.211Z,101641.01
2019-05-15T21:23:38.639Z,101636.55
2019-05-15T21:26:10.971Z,101634.34
2019-05-15T21:28:39.124Z,101631.67
2019-05-15T21:31:08.833Z,101630.31
2019-05-15T21:33:37.948Z,101631.62
2019-05-15T21:36:07.918Z,101634.27
2019-05-15T21:38:38.841Z,101633.36
2019-05-15T21:41:08.161Z,101627.59
2019-05-15T21:43:37.193Z,101622.69
2019-05-15T21:46:08.133Z,101619.56
2019-05-15T21:48:38.217Z,101616.44
2019-05-15T21:51:11.383Z,101621.75
2019-05-15T21:53:38.911Z,101617.74
2019-05-15T21:56:08.235Z,101621.72
2019-05-15T21:58:37.680Z,101619.02
2019-05-15T22:01:10.539Z,101618.14
2019-05-15T22:03:39.971Z,101608.38
2019-05-15T22:06:09.143Z,101610.13
2019-05-15T22:08:38.489Z,101603.91
2019-05-15T22:11:07.847Z,101607.88
2019-05-15T22:13:39.290Z,101606.08
2019-05-15T22:16:08.196Z,101602.55
2019-05-15T22:18:38.472Z,101602.94
2019-05-15T22:21:08.002Z,101600.27
2019-05-15T22:23:38.505Z,101591.84
2019-05-15T22:26:07.664Z,101586.48
2019-05-15T22:28:38.648Z,101585.58
2019-05-15T22:31:08.865Z,101578.92
2019-05-15T22:33:38.129Z,101578.48
2019-05-15T22:36:08.367Z,101582.45
2019-05-15T22:38:37.618Z,101577.55
2019-05-15T22:41:10.026Z,101572.69
2019-05-15T22:43:39.202Z,101575.27
2019-05-15T22:46:10.978Z,101571.72
2019-05-15T22:48:39.124Z,101563.29
2019-05-15T22:51:08.220Z,101560.61
2019-05-15T22:53:38.313Z,101568.14
2019-05-15T22:56:09.297Z,101554.36
2019-05-15T22:58:38.721Z,101559.68
2019-05-15T23:01:09.265Z,101557.91
2019-05-15T23:03:39.377Z,101553.45
2019-05-15T23:06:08.766Z,101543.75
2019-05-15T23:08:38.525Z,101544.59
2019-05-15T23:11:09.498Z,101540.16
2019-05-15T23:13:38.972Z,101533.52
2019-05-15T23:16:08.287Z,101534.81
2019-05-15T23:18:37.332Z,101530.38
2019-05-15T23:21:08.701Z,101536.98
2019-05-15T23:23:38.029Z,101536.92
2019-05-15T23:26:07.241Z,101528.97
2019-05-15T23:28:38.519Z,101525.37
2019-05-15T23:31:08.282Z,101520.94
2019-05-15T23:33:38.684Z,101523.12
2019-05-15T23:36:07.938Z,101517.80
2019-05-15T23:38:38.462Z,101512.91
2019-05-15T23:41:08.253Z,101512.42
2019-05-15T23:43:38.913Z,101508.42
2019-05-15T23:46:08.238Z,101510.61
2019-05-15T23:48:38.247Z,101503.98
2019-05-15T23:51:08.574Z,101504.89
2019-05-15T23:53:37.671Z,101502.62
2019-05-15T23:56:09.171Z,101499.52
2019-05-15T23:58:38.035Z,101493.77
